Time;durP1;ratioP1;P1;durP2;ratioP2;P2;SDS_P1;SDS_P2;PMS_P1;PMS_P2;Temp;Humidity;BMP_temperature;BMP_pressure;BME280_temperature;BME280_humidity;BME280_pressure;Samples;Min_cycle;Max_cycle;Signal;HPM_P1;HPM_P2
2023/10/17 00:01:48;;;;;;;4.43;2.72;;;;;;;8.56;70.97;100481.88;5029829;28;20053;-53
2023/10/17 00:06:54;;;;;;;8.38;2.20;;;;;;;8.53;71.13;100471.50;5025730;28;20405;-48
2023/10/17 00:09:22;;;;;;;7.25;2.10;;;;;;;8.53;71.42;100476.66;5015367;28;20046;-50
2023/10/17 00:14:45;;;;;;;6.97;3.95;;;;;;;8.51;71.75;100464.56;5030766;27;20391;-48
2023/10/17 00:17:15;;;;;;;6.03;3.75;;;;;;;8.51;71.39;100461.97;4983083;28;20082;-50
2023/10/17 00:19:42;;;;;;;;;;;;;;;8.39;71.94;100455.81;5019507;28;20419;-51
2023/10/17 00:22:09;;;;;;;5.43;3.90;;;;;;;8.43;71.67;100460.16;5001502;28;20428;-49
2023/10/17 00:24:36;;;;;;;9.80;4.15;;;;;;;8.44;71.56;100446.41;5003798;28;20058;-47
2023/10/17 00:27:03;;;;;;;7.38;3.78;;;;;;;8.45;71.46;100442.97;5005380;28;20062;-47
2023/10/17 00:29:31;;;;;;;6.97;3.85;;;;;;;8.44;71.69;100436.06;5003550;28;20500;-47
2023/10/17 00:32:02;;;;;;;9.25;3.53;;;;;;;8.44;72.00;100440.41;5003613;28;20038;-46
2023/10/17 00:34:34;;;;;;;6.25;3.88;;;;;;;8.44;71.97;100436.06;5002776;28;20050;-47
2023/10/17 00:39:47;;;;;;;5.47;2.10;;;;;;;8.42;71.71;100436.91;5098481;27;20445;-46
2023/10/17 00:42:32;;;;;;;7.35;2.33;;;;;;;8.42;71.24;100436.91;5034759;28;20948;-51
2023/10/17 00:45:00;;;;;;;5.35;3.05;;;;;;;8.41;72.18;100437.78;5045038;28;20049;-51
2023/10/17 00:47:28;;;;;;;7.93;2.92;;;;;;;8.41;72.23;100430.03;5042997;28;20051;-45
2023/10/17 00:49:59;;;;;;;6.68;2.55;;;;;;;8.40;71.95;100418.81;5050428;28;20053;-47
2023/10/17 00:52:32;;;;;;;5.55;2.45;;;;;;;8.40;72.29;100428.28;5033378;28;20566;-51
2023/10/17 00:55:03;;;;;;;7.53;2.63;;;;;;;8.38;71.73;100422.25;5053835;28;20046;-47
2023/10/17 00:57:31;;;;;;;5.63;2.28;;;;;;;8.38;71.43;100415.38;5050009;28;20135;-48
2023/10/17 01:00:11;;;;;;;4.90;2.28;;;;;;;8.35;71.59;100413.59;5045086;28;20141;-45
2023/10/17 01:02:46;;;;;;;4.80;2.35;;;;;;;8.35;71.54;100410.16;5045690;28;20045;-48
2023/10/17 01:05:15;;;;;;;7.25;2.40;;;;;;;8.33;72.36;100409.25;5045010;28;20051;-50
2023/10/17 01:07:42;;;;;;;3.58;1.58;;;;;;;8.32;72.33;100415.28;5047314;28;20514;-47
2023/10/17 01:10:10;;;;;;;5.05;1.92;;;;;;;8.32;71.47;100410.13;5046415;28;20037;-52
2023/10/17 01:12:54;;;;;;;4.13;2.63;;;;;;;8.29;72.73;100410.09;5046835;28;20053;-49
2023/10/17 01:15:22;;;;;;;8.52;2.35;;;;;;;8.29;72.35;100407.50;5044402;28;20045;-51
2023/10/17 01:17:53;;;;;;;3.63;1.92;;;;;;;8.27;72.25;100407.47;5048529;28;20102;-52
2023/10/17 01:20:22;;;;;;;4.88;2.50;;;;;;;8.28;72.96;100411.78;5054537;28;20091;-53
2023/10/17 01:22:49;;;;;;;3.60;1.50;;;;;;;8.28;72.50;100408.34;5049648;28;20159;-50
2023/10/17 01:25:35;;;;;;;3.42;1.95;;;;;;;8.28;73.34;100398.88;5061866;28;20102;-50
2023/10/17 01:28:05;;;;;;;7.15;1.80;;;;;;;8.27;73.35;100397.16;5052885;28;20089;-50
2023/10/17 01:30:32;;;;;;;5.38;2.10;;;;;;;8.29;72.27;100397.19;5040910;28;20060;-47
2023/10/17 01:33:00;;;;;;;6.45;1.88;;;;;;;8.28;73.15;100398.03;5053094;28;20539;-51
2023/10/17 01:35:27;;;;;;;7.70;1.88;;;;;;;8.28;72.87;100405.78;5050958;28;20056;-50
2023/10/17 01:37:55;;;;;;;4.47;2.13;;;;;;;8.28;73.36;100403.19;5049574;28;20414;-47
2023/10/17 01:40:22;;;;;;;9.18;2.03;;;;;;;8.27;72.63;100406.63;5034628;28;20072;-48
2023/10/17 01:42:51;;;;;;;3.35;2.47;;;;;;;8.26;73.37;100405.75;5051739;28;20041;-48
2023/10/17 01:45:23;;;;;;;5.68;2.22;;;;;;;8.27;73.42;100401.47;5049052;28;20057;-50
2023/10/17 01:47:53;;;;;;;6.43;2.20;;;;;;;8.26;73.03;100399.72;5039475;28;20111;-47
2023/10/17 01:50:26;;;;;;;5.03;2.80;;;;;;;8.24;72.54;100394.53;5030939;28;20041;-46
2023/10/17 01:52:53;;;;;;;5.00;1.98;;;;;;;8.22;73.15;100394.53;5039574;28;20048;-47
2023/10/17 01:55:28;;;;;;;6.20;2.08;;;;;;;8.20;72.83;100396.22;5039688;28;20049;-50
2023/10/17 01:57:57;;;;;;;4.72;2.13;;;;;;;8.19;73.26;100391.03;5032263;28;20128;-52
2023/10/17 02:03:12;;;;;;;5.20;2.83;;;;;;;8.17;73.31;100390.16;5019626;28;20406;-47
2023/10/17 02:05:39;;;;;;;5.90;2.25;;;;;;;8.15;72.54;100390.16;5008872;28;20069;-51
2023/10/17 02:08:06;;;;;;;4.00;2.35;;;;;;;8.13;73.61;100381.50;5002560;28;20054;-47
2023/10/17 02:10:33;;;;;;;5.97;2.50;;;;;;;8.13;73.55;100384.09;5002602;28;20140;-49
2023/10/17 02:13:04;;;;;;;6.95;3.20;;;;;;;8.13;73.44;100368.59;5002828;28;20511;-50
2023/10/17 02:15:30;;;;;;;5.50;2.22;;;;;;;8.12;72.91;100372.03;5002211;28;20125;-49
2023/10/17 02:17:57;;;;;;;4.00;2.60;;;;;;;8.12;72.88;100366.00;5002303;28;20050;-48
2023/10/17 02:23:19;;;;;;;5.00;2.17;;;;;;;8.10;72.94;100359.13;5043617;28;20907;-50
2023/10/17 02:25:46;;;;;;;5.63;2.25;;;;;;;8.10;74.00;100359.13;5007795;28;20069;-51
2023/10/17 02:28:13;;;;;;;5.85;3.17;;;;;;;8.11;73.95;100357.41;5018482;28;20517;-45
2023/10/17 02:30:39;;;;;;;7.82;2.30;;;;;;;8.12;73.90;100360.84;5011920;28;20045;-51
2023/10/17 02:33:28;;;;;;;8.75;1.88;;;;;;;8.12;74.09;100361.72;5022554;28;20053;-48
2023/10/17 02:36:04;;;;;;;4.78;2.50;;;;;;;8.11;73.24;100360.00;5009777;28;20133;-48
2023/10/17 02:38:31;;;;;;;7.38;2.60;;;;;;;8.12;73.37;100360.84;5014533;28;20210;-50
2023/10/17 02:40:58;;;;;;;6.95;2.50;;;;;;;8.12;73.14;100351.41;5009524;28;20427;-48
2023/10/17 02:43:24;;;;;;;8.45;2.95;;;;;;;8.12;74.11;100356.56;5015116;28;20050;-51
2023/10/17 02:45:53;;;;;;;6.28;2.33;;;;;;;8.13;73.75;100366.03;5006052;28;20046;-47
2023/10/17 02:48:23;;;;;;;4.55;2.53;;;;;;;8.13;74.25;100357.41;5019077;28;20049;-49
2023/10/17 02:50:59;;;;;;;5.45;2.38;;;;;;;8.12;73.05;100361.72;5004697;28;20066;-52
2023/10/17 02:53:29;;;;;;;5.60;2.17;;;;;;;8.12;73.88;100360.84;5020142;28;20065;-46
2023/10/17 02:55:57;;;;;;;5.28;2.35;;;;;;;8.12;73.19;100356.56;5006386;28;20467;-46
2023/10/17 02:58:24;;;;;;;5.72;2.35;;;;;;;8.11;74.12;100360.00;5017196;28;20494;-47
2023/10/17 03:00:51;;;;;;;5.93;2.65;;;;;;;8.11;73.84;100354.84;5004160;28;20066;-49
2023/10/17 03:03:19;;;;;;;5.78;2.70;;;;;;;8.11;74.22;100357.41;4999031;28;20057;-48
2023/10/17 03:05:54;;;;;;;4.93;2.83;;;;;;;8.09;73.51;100354.81;5005817;28;20042;-50
2023/10/17 03:08:20;;;;;;;4.78;2.63;;;;;;;8.07;73.82;100347.91;5003255;28;20050;-51
2023/10/17 03:10:55;;;;;;;8.43;3.00;;;;;;;8.05;73.76;100349.59;5008654;28;20136;-48
2023/10/17 03:16:01;;;;;;;6.97;2.92;;;;;;;8.04;73.96;100347.88;5096182;27;20373;-47
2023/10/17 03:18:28;;;;;;;6.65;2.85;;;;;;;8.06;74.44;100343.56;5026909;27;20621;-50
2023/10/17 03:20:56;;;;;;;6.80;2.63;;;;;;;8.06;74.36;100333.25;5022692;28;20074;-46
2023/10/17 03:23:30;;;;;;;7.80;2.88;;;;;;;8.06;74.27;100330.66;5032202;28;20053;-47
2023/10/17 03:26:01;;;;;;;5.85;2.50;;;;;;;8.05;75.20;100337.56;5034680;28;20046;-48
2023/10/17 03:28:28;;;;;;;8.80;2.97;;;;;;;8.05;74.96;100337.56;5042048;28;20045;-45
2023/10/17 03:30:55;;;;;;;7.43;3.17;;;;;;;8.08;75.28;100340.16;5042414;28;20068;-48
2023/10/17 03:33:32;;;;;;;7.60;3.15;;;;;;;8.09;75.45;100341.91;5040783;28;20549;-46
2023/10/17 03:38:36;;;;;;;6.07;3.70;;;;;;;8.09;74.58;100341.03;5037254;28;20409;-49
2023/10/17 03:41:06;;;;;;;6.00;4.03;;;;;;;8.12;74.34;100346.25;5013830;28;20041;-51
2023/10/17 03:43:49;;;;;;;6.18;3.80;;;;;;;8.12;74.40;100333.34;5009084;28;20513;-51
2023/10/17 03:46:16;;;;;;;6.32;3.72;;;;;;;8.10;74.62;100333.31;5016840;28;20133;-51
2023/10/17 03:48:49;;;;;;;6.75;4.25;;;;;;;8.11;74.17;100329.03;5013246;28;20477;-50
2023/10/17 03:51:25;;;;;;;8.50;3.80;;;;;;;8.10;74.88;100327.28;5013195;28;20056;-49
2023/10/17 03:53:53;;;;;;;7.97;3.95;;;;;;;8.10;74.25;100316.97;5018546;28;20077;-49
2023/10/17 03:56:24;;;;;;;8.25;4.40;;;;;;;8.09;74.70;100325.56;5014545;28;20046;-50
2023/10/17 03:58:57;;;;;;;7.22;4.35;;;;;;;8.10;74.47;100322.13;5004012;28;20056;-51
2023/10/17 04:01:26;;;;;;;9.05;3.88;;;;;;;8.09;75.25;100325.56;5003810;28;20050;-48
2023/10/17 04:03:54;;;;;;;5.78;4.00;;;;;;;8.07;75.40;100325.53;5008078;28;20061;-48
2023/10/17 04:06:34;;;;;;;6.07;4.32;;;;;;;8.07;75.85;100315.22;5008923;28;20050;-51
2023/10/17 04:11:49;;;;;;;8.90;4.65;;;;;;;8.05;74.66;100310.88;5010145;28;20491;-49
2023/10/17 04:14:17;;;;;;;5.50;3.53;;;;;;;8.07;74.55;100316.94;5007788;28;20045;-48
2023/10/17 04:16:44;;;;;;;8.68;4.20;;;;;;;8.07;74.73;100316.94;5014672;28;20716;-48
2023/10/17 04:19:18;;;;;;;9.27;3.67;;;;;;;8.07;75.35;100311.78;5011607;28;20517;-45
2023/10/17 04:22:07;;;;;;;6.88;4.03;;;;;;;8.06;75.63;100310.91;5022635;28;20054;-47
2023/10/17 04:24:48;;;;;;;7.60;4.45;;;;;;;8.04;74.73;100304.00;5029019;28;20487;-51
2023/10/17 04:30:00;;;;;;;8.68;2.90;;;;;;;8.04;75.67;100306.59;5017619;28;20466;-50
2023/10/17 04:32:28;;;;;;;8.68;3.30;;;;;;;8.02;76.02;100297.94;5002354;28;20050;-49
2023/10/17 04:34:56;;;;;;;9.35;2.53;;;;;;;8.01;75.05;100296.22;5003992;28;20073;-46
2023/10/17 04:37:31;;;;;;;7.88;3.33;;;;;;;8.01;75.57;100293.66;5015015;28;20088;-49
2023/10/17 04:42:47;;;;;;;6.35;3.05;;;;;;;7.96;74.89;100291.88;4999528;28;20046;-45
2023/10/17 04:45:14;;;;;;;6.07;4.18;;;;;;;7.95;74.87;100286.69;5000259;28;20359;-51
2023/10/17 04:47:45;;;;;;;6.22;2.72;;;;;;;7.94;75.27;100290.13;4995038;28;20070;-53
2023/10/17 04:50:12;;;;;;;6.05;2.40;;;;;;;7.92;75.64;100284.94;5002658;28;20044;-46
2023/10/17 04:52:41;;;;;;;10.75;2.70;;;;;;;7.91;74.65;100293.50;5003487;28;20050;-49
2023/10/17 04:55:30;;;;;;;6.78;2.80;;;;;;;7.89;75.68;100292.66;5017814;28;20048;-47
2023/10/17 05:03:45;;;;;;;9.18;3.10;;;;;;;7.81;74.52;100294.28;5010381;28;20056;-51
2023/10/17 05:09:00;;;;;;;6.80;4.47;;;;;;;7.75;75.69;100300.22;5034290;27;20403;-48
2023/10/17 06:18:17;;;;;;;9.50;4.88;;;;;;;7.39;75.62;100297.16;4992528;28;20550;-50
2023/10/17 06:21:06;;;;;;;5.80;3.40;;;;;;;7.40;76.53;100298.03;4984679;28;20495;-51
2023/10/17 06:32:07;;;;;;;8.75;4.38;;;;;;;7.79;75.35;100306.25;5063936;27;20398;-50
2023/10/17 06:34:33;;;;;;;5.45;3.20;;;;;;;7.52;75.25;100312.78;5005781;28;20463;-52
2023/10/17 06:37:01;;;;;;;9.52;4.63;;;;;;;7.44;76.76;100305.81;5018411;28;20078;-50
2023/10/17 06:42:15;;;;;;;6.13;3.25;;;;;;;7.40;76.18;100303.19;5015966;28;20049;-47
2023/10/17 06:47:31;;;;;;;9.38;4.35;;;;;;;7.39;75.96;100312.59;5029468;28;20041;-50
2023/10/17 06:52:52;;;;;;;7.22;2.13;;;;;;;7.37;75.17;100303.13;5028034;28;20404;-49
2023/10/17 06:55:22;;;;;;;5.88;2.53;;;;;;;7.39;76.12;100302.31;5003409;28;20117;-49
2023/10/17 06:57:50;;;;;;;4.75;2.10;;;;;;;7.40;76.11;100291.13;5004004;28;20558;-50
2023/10/17 07:00:24;;;;;;;6.05;4.40;;;;;;;7.46;75.38;100303.25;5002711;28;20499;-46
2023/10/17 07:02:56;;;;;;;7.63;2.78;;;;;;;7.50;76.61;100304.19;5003540;28;20141;-48
2023/10/17 07:05:23;;;;;;;7.25;2.65;;;;;;;7.53;75.72;100299.91;4999283;28;20046;-47
2023/10/17 07:07:53;;;;;;;3.95;2.08;;;;;;;7.57;76.06;100306.00;5004175;28;20470;-49
2023/10/17 07:13:39;;;;;;;10.23;2.58;;;;;;;7.64;75.57;100312.97;5060299;28;20490;-47
2023/10/17 07:16:11;;;;;;;6.88;2.25;;;;;;;7.70;75.74;100313.03;5034747;28;20063;-51
2023/10/17 07:21:17;;;;;;;10.05;2.60;;;;;;;7.82;76.32;100321.78;5021652;27;20411;-49
2023/10/17 07:23:45;;;;;;;4.35;2.38;;;;;;;7.85;76.26;100321.81;5011299;28;20041;-48
2023/10/17 07:29:06;;;;;;;7.25;3.78;;;;;;;7.99;75.61;100329.72;5081319;27;20398;-49
2023/10/17 07:31:33;;;;;;;8.05;3.33;;;;;;;8.07;76.03;100338.44;5045365;28;20045;-46
2023/10/17 07:34:16;;;;;;;8.68;3.65;;;;;;;8.15;74.92;100335.97;5062178;28;20053;-50
2023/10/17 07:36:47;;;;;;;5.63;3.47;;;;;;;8.25;75.49;100341.22;5067117;28;20049;-50
2023/10/17 07:39:36;;;;;;;7.15;2.70;;;;;;;8.36;75.19;100339.63;5043869;28;20404;-47
2023/10/17 07:42:01;;;;;;;3.97;3.03;;;;;;;8.51;75.21;100343.22;5055485;28;20060;-46
2023/10/17 07:44:27;;;;;;;6.60;2.83;;;;;;;8.64;74.89;100339.94;5055294;28;20045;-48
2023/10/17 07:49:43;;;;;;;3.80;3.03;;;;;;;8.94;75.05;100333.34;5066484;28;20490;-47
2023/10/17 07:52:15;;;;;;;5.32;2.95;;;;;;;9.04;74.66;100328.22;5060658;28;20037;-48
2023/10/17 07:54:55;;;;;;;4.07;2.63;;;;;;;9.13;74.88;100328.31;5025645;28;20140;-50
2023/10/17 07:57:26;;;;;;;3.33;3.03;;;;;;;9.25;73.58;100323.25;5041362;28;20095;-52
2023/10/17 07:59:57;;;;;;;4.50;2.83;;;;;;;9.33;74.33;100322.44;5060015;28;20044;-48
2023/10/17 08:02:30;;;;;;;4.45;3.25;;;;;;;9.42;74.29;100332.81;5050734;28;20056;-47
2023/10/17 08:05:16;;;;;;;4.65;2.83;;;;;;;9.51;73.74;100324.25;5041074;28;20502;-50
2023/10/17 08:07:48;;;;;;;6.70;2.72;;;;;;;9.59;73.33;100321.75;5058216;28;20071;-51
2023/10/17 08:10:29;;;;;;;5.03;2.40;;;;;;;9.66;73.62;100318.31;5060819;28;20045;-51
2023/10/17 08:12:57;;;;;;;3.35;2.20;;;;;;;9.77;73.61;100326.13;5061222;28;20498;-46
2023/10/17 08:15:33;;;;;;;4.15;2.30;;;;;;;9.77;73.05;100316.63;5061556;28;20041;-49
2023/10/17 08:18:03;;;;;;;3.00;2.28;;;;;;;9.86;73.27;100323.59;5041208;28;20041;-52
2023/10/17 08:20:45;;;;;;;5.60;2.80;;;;;;;9.98;73.17;100320.19;5036682;28;20053;-49
2023/10/17 08:23:12;;;;;;;3.80;2.70;;;;;;;10.15;72.85;100314.22;5031294;28;20049;-49
2023/10/17 08:25:52;;;;;;;4.30;2.33;;;;;;;10.31;72.95;100319.44;5036655;28;20048;-49
2023/10/17 08:31:19;;;;;;;3.90;2.67;;;;;;;10.72;72.21;100313.50;5030940;28;20053;-49
2023/10/17 08:36:42;;;;;;;4.72;2.55;;;;;;;11.54;70.40;100312.56;5020409;27;20425;-48
2023/10/17 08:42:05;;;;;;;3.65;1.83;;;;;;;12.03;70.94;100302.88;5073768;27;20400;-49
2023/10/17 08:44:37;;;;;;;3.88;0.95;;;;;;;12.38;69.42;100308.78;5050872;28;20048;-50
2023/10/17 08:47:05;;;;;;;3.63;0.90;;;;;;;12.78;69.39;100306.78;5041570;28;20048;-49
2023/10/17 08:49:33;;;;;;;3.75;0.98;;;;;;;13.23;67.89;100311.59;5042824;28;20077;-49
2023/10/17 08:52:00;;;;;;;1.90;0.93;;;;;;;13.56;67.18;100301.78;5047394;28;20052;-53
2023/10/17 08:54:28;;;;;;;1.23;0.90;;;;;;;13.81;66.13;100301.47;5042265;28;20727;-50
2023/10/17 08:57:00;;;;;;;2.85;0.73;;;;;;;14.06;65.62;100301.19;5043135;28;20049;-48
2023/10/17 09:02:29;;;;;;;1.75;1.10;;;;;;;14.60;64.55;100291.72;5040117;28;20128;-48
2023/10/17 09:05:03;;;;;;;2.65;0.98;;;;;;;14.92;63.14;100301.69;5051270;28;20045;-49
2023/10/17 09:07:41;;;;;;;4.30;2.20;;;;;;;15.40;62.27;100288.66;5042657;28;20049;-48
2023/10/17 09:10:17;;;;;;;5.47;1.08;;;;;;;15.90;61.04;100277.22;5043278;28;20047;-49
2023/10/17 09:12:53;;;;;;;2.60;1.45;;;;;;;16.27;61.14;100274.72;5060098;28;20056;-46
2023/10/17 09:15:30;;;;;;;1.77;0.90;;;;;;;16.63;59.18;100272.13;5040544;28;20045;-52
2023/10/17 09:17:59;;;;;;;5.03;1.35;;;;;;;16.91;58.13;100275.81;5025399;28;20053;-50
2023/10/17 09:20:35;;;;;;;2.05;0.80;;;;;;;17.16;57.09;100276.06;5055888;28;20038;-47
2023/10/17 09:23:02;;;;;;;4.53;1.38;;;;;;;17.35;56.41;100275.56;5061364;28;20053;-48
2023/10/17 09:25:30;;;;;;;5.32;0.93;;;;;;;17.34;54.95;100252.91;5059834;28;20092;-48
2023/10/17 09:27:57;;;;;;;1.20;1.00;;;;;;;17.41;54.55;100254.47;5082058;28;20261;-50
2023/10/17 09:30:23;;;;;;;3.58;1.20;;;;;;;17.52;55.11;100250.66;5098093;28;20063;-52
2023/10/17 09:32:51;;;;;;;3.45;1.23;;;;;;;17.56;55.78;100249.69;5103036;28;20059;-51
2023/10/17 09:35:18;;;;;;;4.10;0.93;;;;;;;17.57;55.35;100251.41;5101488;28;20109;-49
2023/10/17 09:40:30;;;;;;;2.05;1.08;;;;;;;17.66;54.34;100245.88;5055425;28;20375;-49
2023/10/17 09:42:58;;;;;;;4.55;1.20;;;;;;;17.61;54.27;100250.41;5023510;28;20049;-45
2023/10/17 09:45:31;;;;;;;4.53;1.48;;;;;;;17.56;53.74;100252.31;5018808;28;20606;-46
2023/10/17 09:48:04;;;;;;;4.35;0.88;;;;;;;17.39;54.16;100243.16;5016313;28;20065;-50
2023/10/17 09:50:35;;;;;;;8.43;1.23;;;;;;;17.47;54.01;100243.78;5016897;28;20096;-49
2023/10/17 09:55:48;;;;;;;4.70;4.30;;;;;;;17.80;54.18;100244.63;5053532;28;20436;-51
2023/10/17 09:58:21;;;;;;;5.57;3.33;;;;;;;17.93;52.50;100237.28;5020484;28;20046;-50
2023/10/17 10:00:53;;;;;;;4.40;2.65;;;;;;;17.95;52.27;100223.22;5001092;28;20057;-52
2023/10/17 10:03:24;;;;;;;2.90;2.58;;;;;;;17.95;51.60;100249.41;5012991;28;20061;-53
2023/10/17 10:05:53;;;;;;;5.22;2.75;;;;;;;18.07;52.36;100224.59;5015268;28;20042;-48
2023/10/17 10:08:33;;;;;;;4.10;2.72;;;;;;;18.06;51.71;100219.38;5023388;28;20149;-50
2023/10/17 10:11:02;;;;;;;4.13;2.72;;;;;;;18.22;52.22;100218.03;5031965;28;20045;-47
2023/10/17 10:13:31;;;;;;;3.63;3.13;;;;;;;17.96;51.21;100209.19;5022853;28;20473;-47
2023/10/17 10:21:12;;;;;;;2.67;0.90;;;;;;;17.64;52.18;100220.66;5028348;27;20407;-52
2023/10/17 10:23:41;;;;;;;2.30;0.85;;;;;;;17.61;52.24;100219.00;5016144;28;20091;-49
2023/10/17 10:28:47;;;;;;;8.07;1.27;;;;;;;17.69;51.37;100211.75;5053147;27;20393;-51
2023/10/17 10:33:58;;;;;;;2.17;0.88;;;;;;;17.51;51.92;100207.94;5043908;27;20405;-49
2023/10/17 10:36:26;;;;;;;2.10;1.45;;;;;;;17.24;51.44;100209.56;5040440;28;20041;-50
2023/10/17 10:38:55;;;;;;;2.90;1.33;;;;;;;17.04;51.96;100208.31;5039528;28;20050;-53
2023/10/17 10:41:23;;;;;;;5.32;2.05;;;;;;;16.94;52.56;100207.72;5043257;28;20390;-49
2023/10/17 10:43:58;;;;;;;2.60;1.42;;;;;;;16.76;52.64;100216.91;5043587;28;20049;-47
2023/10/17 10:46:25;;;;;;;3.85;1.13;;;;;;;16.60;52.73;100214.69;5042942;28;20060;-53
2023/10/17 10:48:54;;;;;;;4.25;0.82;;;;;;;16.45;53.11;100214.16;5035542;28;20059;-49
2023/10/17 10:51:25;;;;;;;2.10;1.33;;;;;;;16.28;53.26;100208.50;5035957;28;20578;-51
2023/10/17 10:53:54;;;;;;;1.77;1.02;;;;;;;16.18;53.51;100203.47;5030955;28;20053;-48
2023/10/17 10:56:22;;;;;;;3.08;1.17;;;;;;;16.12;53.11;100206.25;5042747;28;20133;-49
2023/10/17 10:58:53;;;;;;;5.85;2.33;;;;;;;16.00;53.24;100209.13;5042012;28;20045;-46
2023/10/17 11:01:20;;;;;;;3.67;1.55;;;;;;;15.99;53.90;100204.78;5041035;28;20140;-53
2023/10/17 11:03:49;;;;;;;2.55;1.20;;;;;;;15.92;53.76;100204.94;5041841;28;20051;-46
2023/10/17 11:06:23;;;;;;;4.13;1.67;;;;;;;15.60;54.05;100195.19;5034019;28;20050;-45
2023/10/17 11:08:51;;;;;;;4.50;1.08;;;;;;;15.53;55.14;100199.66;5042738;28;20076;-46
2023/10/17 11:11:19;;;;;;;2.38;1.52;;;;;;;15.37;55.07;100204.34;5041738;28;20073;-47
2023/10/17 11:16:25;;;;;;;3.40;2.47;;;;;;;15.01;55.06;100198.06;5035138;28;20402;-50
2023/10/17 11:18:54;;;;;;;4.35;2.78;;;;;;;15.10;55.64;100191.78;5039721;28;20056;-46
2023/10/17 11:21:22;;;;;;;4.78;3.13;;;;;;;14.93;55.50;100199.09;5024178;28;20103;-48
2023/10/17 11:23:54;;;;;;;4.72;3.50;;;;;;;14.51;56.36;100193.69;5023482;28;20049;-49
2023/10/17 11:26:25;;;;;;;3.53;1.85;;;;;;;14.39;56.77;100199.94;5020951;28;20431;-48
2023/10/17 11:28:56;;;;;;;2.58;2.38;;;;;;;14.33;56.96;100189.66;5020533;28;20053;-47
2023/10/17 11:31:24;;;;;;;3.20;2.47;;;;;;;14.38;57.29;100177.41;5014916;28;20058;-46
2023/10/17 11:33:56;;;;;;;4.72;2.42;;;;;;;14.47;57.22;100180.72;5019793;28;20076;-49
2023/10/17 11:36:23;;;;;;;3.55;2.60;;;;;;;14.50;57.50;100170.25;5022362;28;20148;-48
2023/10/17 11:38:56;;;;;;;5.03;2.17;;;;;;;14.61;57.80;100168.31;5014567;28;20045;-46
2023/10/17 11:41:39;;;;;;;3.15;2.28;;;;;;;14.68;58.07;100168.19;5021684;28;20054;-49
2023/10/17 11:44:07;;;;;;;3.38;2.80;;;;;;;14.64;56.88;100163.06;5015863;28;20073;-48
2023/10/17 11:46:37;;;;;;;5.68;3.38;;;;;;;14.49;56.90;100150.31;5022701;28;20045;-48
2023/10/17 11:49:21;;;;;;;;;;;;;;;14.30;56.82;100158.44;5015766;28;20057;-45
2023/10/17 11:51:51;;;;;;;4.65;2.72;;;;;;;14.39;57.29;100160.03;5073174;28;20388;-50
2023/10/17 11:54:22;;;;;;;5.20;2.80;;;;;;;14.52;56.30;100143.28;5035169;28;20049;-47
2023/10/17 11:57:12;;;;;;;6.35;4.28;;;;;;;14.45;56.20;100135.63;5055917;28;20048;-47
2023/10/17 12:00:06;;;;;;;6.43;3.05;;;;;;;14.52;57.01;100137.19;5033267;28;20101;-51
2023/10/17 12:02:34;;;;;;;6.60;2.92;;;;;;;14.81;56.90;100134.97;5026329;28;20161;-50
2023/10/17 12:05:01;;;;;;;3.15;2.20;;;;;;;14.88;57.03;100133.97;5034754;28;20054;-48
2023/10/17 12:07:29;;;;;;;3.90;2.88;;;;;;;15.02;56.69;100126.75;5023965;28;20049;-47
2023/10/17 12:10:04;;;;;;;3.28;2.75;;;;;;;15.13;56.51;100138.72;5022095;28;20050;-49
2023/10/17 12:12:33;;;;;;;5.95;2.75;;;;;;;15.28;56.75;100114.06;5021558;28;20076;-45
2023/10/17 12:15:00;;;;;;;3.90;3.10;;;;;;;15.40;55.63;100100.75;5035923;28;20142;-49
2023/10/17 12:17:27;;;;;;;4.50;2.53;;;;;;;15.53;56.45;100103.94;5032380;28;20639;-52
2023/10/17 12:19:54;;;;;;;4.82;2.60;;;;;;;15.74;56.16;100104.31;5016447;28;20053;-51
2023/10/17 12:22:20;;;;;;;4.93;2.97;;;;;;;15.68;55.52;100100.09;5023146;28;20049;-51
2023/10/17 12:24:47;;;;;;;4.15;3.25;;;;;;;15.63;55.57;100101.97;5042397;28;20065;-51
2023/10/17 12:27:14;;;;;;;4.63;2.60;;;;;;;15.44;55.04;100100.69;5014426;28;20050;-47
2023/10/17 12:29:41;;;;;;;3.05;2.60;;;;;;;15.40;55.98;100103.34;5009212;28;20458;-49
2023/10/17 12:32:11;;;;;;;3.40;2.95;;;;;;;15.06;55.25;100095.41;5008592;28;20070;-47
2023/10/17 12:34:39;;;;;;;;;;;;;;;14.83;55.77;100073.25;5017307;28;20060;-48
2023/10/17 12:37:12;;;;;;;4.22;2.70;;;;;;;14.75;55.91;100071.63;5010539;28;19925;-49
2023/10/17 12:39:42;;;;;;;3.95;2.72;;;;;;;14.71;56.19;100069.09;5009922;28;20049;-47
2023/10/17 12:42:11;;;;;;;3.42;2.70;;;;;;;14.74;56.48;100063.81;5008609;28;20053;-47
2023/10/17 12:44:38;;;;;;;4.47;3.20;;;;;;;14.74;56.72;100061.22;5006520;28;20041;-45
2023/10/17 12:47:05;;;;;;;3.60;2.63;;;;;;;14.77;56.30;100069.00;5008761;28;20112;-47
2023/10/17 12:49:32;;;;;;;3.90;2.58;;;;;;;14.88;56.05;100046.19;5007568;28;20052;-47
2023/10/17 12:52:00;;;;;;;3.85;1.75;;;;;;;15.00;55.53;100052.03;5006629;28;20485;-50
2023/10/17 12:54:27;;;;;;;2.50;2.30;;;;;;;15.23;55.27;100050.69;5007236;28;20519;-48
2023/10/17 12:56:55;;;;;;;3.75;2.75;;;;;;;15.40;55.50;100061.59;5008255;28;20060;-47
2023/10/17 12:59:22;;;;;;;4.80;2.22;;;;;;;15.36;54.16;100046.91;5008394;28;20050;-51
2023/10/17 13:01:51;;;;;;;4.35;2.33;;;;;;;15.41;54.82;100060.69;5007041;28;20125;-50
2023/10/17 13:04:19;;;;;;;3.38;1.95;;;;;;;15.44;54.38;100053.69;5003896;28;20517;-46
2023/10/17 13:06:48;;;;;;;5.25;3.72;;;;;;;15.31;54.91;100055.72;5036404;28;20041;-50
2023/10/17 13:09:15;;;;;;;4.88;2.70;;;;;;;15.16;54.06;100056.03;5030175;28;20076;-48
2023/10/17 13:11:42;;;;;;;3.15;2.47;;;;;;;15.04;54.39;100045.88;5026498;28;20076;-46
2023/10/17 13:14:08;;;;;;;2.63;2.10;;;;;;;14.84;54.38;100047.16;5027075;28;20042;-47
2023/10/17 13:16:35;;;;;;;2.70;2.40;;;;;;;14.64;54.63;100048.38;5025205;28;20096;-46
2023/10/17 13:19:06;;;;;;;5.00;2.58;;;;;;;14.59;55.58;100050.19;5031659;28;20045;-45
2023/10/17 13:21:36;;;;;;;4.82;2.50;;;;;;;14.59;55.27;100050.19;5027814;28;20052;-46
2023/10/17 13:24:05;;;;;;;4.38;2.67;;;;;;;14.54;55.86;100052.03;5023630;28;20072;-48
2023/10/17 13:26:32;;;;;;;6.75;3.88;;;;;;;14.50;55.42;100037.34;5027826;28;20042;-45
2023/10/17 13:28:58;;;;;;;3.22;2.05;;;;;;;14.58;55.76;100032.84;5026488;28;20135;-48
2023/10/17 13:31:25;;;;;;;4.70;2.38;;;;;;;14.58;55.54;100032.84;5026637;28;20076;-48
2023/10/17 13:33:55;;;;;;;3.05;2.83;;;;;;;14.38;55.79;100031.47;5028589;28;20053;-49
2023/10/17 13:36:22;;;;;;;3.33;2.22;;;;;;;14.43;55.90;100025.31;5022089;28;20691;-46
2023/10/17 13:38:49;;;;;;;3.80;3.20;;;;;;;14.31;55.31;100024.66;5020318;28;20056;-49
2023/10/17 13:41:15;;;;;;;3.88;1.98;;;;;;;14.28;56.10;100022.13;5023864;28;20045;-46
2023/10/17 13:43:43;;;;;;;5.82;2.70;;;;;;;14.31;56.12;100013.38;5024311;28;20045;-47
2023/10/17 13:46:13;;;;;;;6.57;2.38;;;;;;;14.32;56.84;100015.97;5019119;28;20048;-51
2023/10/17 13:48:48;;;;;;;7.05;1.63;;;;;;;14.21;56.71;100015.28;5024043;28;20456;-47
2023/10/17 13:51:16;;;;;;;3.67;2.38;;;;;;;14.13;56.09;100016.31;5029398;28;20103;-50
2023/10/17 13:53:45;;;;;;;4.05;2.53;;;;;;;14.04;56.56;100016.47;5029043;28;20049;-47
2023/10/17 13:56:14;;;;;;;3.78;3.47;;;;;;;14.00;56.60;100012.19;5032860;28;20447;-46
2023/10/17 13:58:41;;;;;;;4.35;2.80;;;;;;;13.97;56.33;99994.03;5024299;28;20072;-50
2023/10/17 14:03:56;;;;;;;3.65;2.05;;;;;;;13.92;56.74;100007.16;5025137;28;20057;-47
2023/10/17 14:06:27;;;;;;;4.22;3.10;;;;;;;14.02;56.64;99994.81;5034806;28;20049;-51
2023/10/17 14:08:55;;;;;;;4.30;2.92;;;;;;;13.98;56.65;99996.59;5027563;28;20072;-48
2023/10/17 14:11:22;;;;;;;4.55;2.97;;;;;;;14.07;57.29;99990.38;5025288;28;20453;-46
2023/10/17 14:13:50;;;;;;;6.15;2.95;;;;;;;14.11;56.62;99991.16;5026078;28;20049;-47
2023/10/17 14:16:17;;;;;;;3.88;2.78;;;;;;;14.11;57.39;99981.63;5024540;28;20045;-48
2023/10/17 14:18:46;;;;;;;4.15;2.28;;;;;;;14.19;57.58;99980.63;5024067;28;20115;-50
2023/10/17 14:23:58;;;;;;;3.88;1.73;;;;;;;14.45;57.10;99987.09;5061862;27;20406;-45
2023/10/17 14:26:28;;;;;;;3.90;1.30;;;;;;;14.30;57.29;99976.06;5055899;28;20045;-51
2023/10/17 14:28:56;;;;;;;2.40;1.45;;;;;;;14.24;57.46;99981.38;5046791;28;20111;-51
2023/10/17 14:31:24;;;;;;;4.10;1.33;;;;;;;14.11;56.75;99981.63;5050729;28;20051;-45
2023/10/17 14:33:52;;;;;;;4.55;1.60;;;;;;;14.07;57.27;99976.47;5056023;28;20102;-46